Gould, Arkansas
Current Conditions -  °F | °C
As of 9:53 AM on Wednesday 28 Jan 2015 (Local Time) from KPBF Reporting Station
Clear Clear  
Wind Chill:   Ceiling: Unl
Heat Index:   Visibility: 10mi
Dew Point:   Wind: 10mph
Humidity: 66%   Direction: 120°ESE
Pressure: 30.27"   Gusts: NA
Location:  33.99°N, 91.56°W
Report Text: KPBF 281553Z AUTO 12009KT 10SM CLR 09/03 A3027 RMK AO2 SLP251 T00890028
Loading
Personal Weather Stations






























Interactive Weather Map New forecast layout! Learn more

10-Day Weather Forecast

Advertisements
Track Severe Weather on mobile